Airports

 

 

Airport Name Latest METAR Visual Conditions
Atlanta International (ATL) KATL 150652Z 25004KT 10SM FEW029 SCT150 SCT180 07/04 A2997 RMK AO2 SLP150 T00720039 VFR
Asheville Regional (AVL) KAVL 150654Z AUTO 21003KT 10SM CLR 02/00 A2991 RMK AO2 SLP126 T00220000 VFR
Birmingham International (BHM) KBHM 150653Z 00000KT 9SM OVC008 08/07 A2999 RMK AO2 CIG 007V012 SLP154 T00830067 IFR
Chattanooga (CHA) KCHA 150553Z 18005KT 10SM CLR 07/03 A2995 RMK AO2 SLP143 T00670033 10089 20061 51012 VFR
Charlotte International (CLT) KCLT 150652Z 00000KT 10SM CLR 03/00 A2991 RMK AO2 SLP127 T00330000 $ VFR
Greensboro Piedmont-Triad (GSO) KGSO 150654Z 25007KT 10SM CLR 03/00 A2986 RMK AO2 SLP113 T00330000 VFR
Greenville-Spartanburg International (GSP) KGSP 150653Z AUTO 27004KT 10SM CLR 04/01 A2993 RMK AO2 SLP133 T00390011 VFR
Middle Georgia Regional Airport (MCN) KMCN 150653Z AUTO 24003KT 1/2SM FG CLR 04/03 A3000 RMK AO2 SLP156 T00440033 LIFR
Tri-Cities Airport (TRI) KTRI 150653Z 23004KT 10SM OVC037 06/02 A2991 RMK AO2 SLP121 T00560022 VFR
Knoxville Regional (TYS) KTYS 150653Z 24005KT 10SM OVC027 06/04 A2994 RMK AO2 SLP137 T00610039 MVFR